createdAt,value
2022-09-09T00:02:11.474Z,107680.59
2022-09-09T00:04:40.898Z,107729.75
2022-09-09T00:07:14.566Z,107718.53
2022-09-09T00:09:50.246Z,107741.16
2022-09-09T00:12:24.005Z,107822.34
2022-09-09T00:14:57.568Z,107913.28
2022-09-09T00:17:39.011Z,107954.75
2022-09-09T00:20:14.433Z,108033.88
2022-09-09T00:22:50.562Z,108104.78
2022-09-09T00:25:25.799Z,108155.41
2022-09-09T00:27:54.307Z,108149.72
2022-09-09T00:30:26.712Z,108179.91
2022-09-09T00:33:01.347Z,108152.16
2022-09-09T00:35:32.385Z,108161.28
2022-09-09T00:38:05.718Z,108215.09
2022-09-09T00:40:35.842Z,108269.75
2022-09-09T00:43:26.686Z,108317.63
2022-09-09T00:46:16.635Z,108388.66
2022-09-09T00:48:54.399Z,108453.84
2022-09-09T00:51:33.506Z,108530.50
2022-09-09T00:54:24.135Z,108565.56
2022-09-09T00:57:02.591Z,108611.91
2022-09-09T00:59:37.415Z,108669.41
2022-09-09T01:02:15.846Z,108658.06
2022-09-09T01:04:45.380Z,108683.31
2022-09-09T01:07:20.100Z,108699.66
2022-09-09T01:09:57.163Z,108744.41
2022-09-09T01:12:30.628Z,108762.50
2022-09-09T01:15:09.864Z,108806.25
2022-09-09T01:17:56.092Z,108832.22
2022-09-09T01:20:28.105Z,108863.97
2022-09-09T01:23:28.544Z,108922.13
2022-09-09T01:26:21.922Z,108952.81
2022-09-09T01:28:53.678Z,108972.59
2022-09-09T01:31:31.113Z,109012.66
2022-09-09T01:33:59.419Z,109037.53
2022-09-09T01:36:35.852Z,109040.78
2022-09-09T01:39:04.524Z,109055.34
2022-09-09T01:41:35.608Z,109044.91
2022-09-09T01:44:11.965Z,109073.94
2022-09-09T01:46:42.342Z,109102.13
2022-09-09T01:49:19.902Z,109104.41
2022-09-09T01:51:54.015Z,109093.16
2022-09-09T01:54:31.189Z,109130.97
2022-09-09T01:57:12.804Z,109078.81
2022-09-09T01:59:59.652Z,109146.63
2022-09-09T02:02:33.480Z,109078.59
2022-09-09T02:05:19.956Z,109092.91
2022-09-09T02:07:50.583Z,109147.69
2022-09-09T02:10:35.129Z,109255.78
2022-09-09T02:13:20.027Z,109242.19
2022-09-09T02:15:55.008Z,109323.69
2022-09-09T02:18:28.668Z,109332.81
2022-09-09T02:20:59.858Z,109372.25
2022-09-09T02:23:29.701Z,109371.97
2022-09-09T02:26:00.825Z,109385.59
2022-09-09T02:28:34.662Z,109417.97
2022-09-09T02:31:03.454Z,109446.84
2022-09-09T02:33:45.484Z,109475.97
2022-09-09T02:36:18.206Z,109488.38
2022-09-09T02:38:56.356Z,109543.06
2022-09-09T02:41:33.905Z,109638.91
2022-09-09T02:44:04.226Z,109679.69
2022-09-09T02:46:51.405Z,109707.78
2022-09-09T02:49:28.047Z,109707.03
2022-09-09T02:52:03.357Z,109746.59
2022-09-09T02:54:34.924Z,109787.47
2022-09-09T02:57:12.601Z,109795.72
2022-09-09T02:59:46.496Z,109852.81
2022-09-09T03:02:16.346Z,109835.59
2022-09-09T03:04:52.019Z,109800.63
2022-09-09T03:07:24.057Z,109767.06
2022-09-09T03:09:56.029Z,109729.94
2022-09-09T03:12:27.593Z,109677.25
2022-09-09T03:14:57.491Z,109677.69
2022-09-09T03:17:29.195Z,109573.28
2022-09-09T03:19:59.766Z,109517.88
2022-09-09T03:22:28.038Z,109526.47
2022-09-09T03:24:58.860Z,109451.53
2022-09-09T03:27:27.104Z,109414.31
2022-09-09T03:29:58.993Z,109397.38
2022-09-09T03:32:27.947Z,109373.84
2022-09-09T03:34:58.413Z,109396.94
2022-09-09T03:37:27.952Z,109393.00
2022-09-09T03:39:56.556Z,109405.81
2022-09-09T03:42:25.432Z,109425.06
2022-09-09T03:44:58.904Z,109443.97
2022-09-09T03:47:27.784Z,109458.59
2022-09-09T03:50:02.865Z,109462.84
2022-09-09T03:52:31.920Z,109515.16
2022-09-09T03:55:00.319Z,109529.28
2022-09-09T03:57:31.001Z,109573.16
2022-09-09T04:00:02.143Z,109574.44
2022-09-09T04:02:34.255Z,109653.34
2022-09-09T04:05:02.608Z,109635.41
2022-09-09T04:07:31.059Z,109663.63
2022-09-09T04:09:59.469Z,109694.34
2022-09-09T04:12:27.645Z,109723.84
2022-09-09T04:14:55.730Z,109743.56
2022-09-09T04:17:25.994Z,109753.06
2022-09-09T04:19:54.198Z,109771.03
2022-09-09T04:22:23.612Z,109772.06
2022-09-09T04:24:51.814Z,109768.22
2022-09-09T04:27:21.897Z,109845.59
2022-09-09T04:29:50.059Z,109792.19
2022-09-09T04:32:18.687Z,109772.91
2022-09-09T04:34:49.286Z,109780.63
2022-09-09T04:37:18.462Z,109784.38
2022-09-09T04:39:46.743Z,109818.50
2022-09-09T04:42:14.786Z,109803.09
2022-09-09T04:44:44.785Z,109766.53
2022-09-09T04:47:14.606Z,109751.66
2022-09-09T04:49:43.988Z,109772.63
2022-09-09T04:52:13.944Z,109796.44
2022-09-09T04:54:42.302Z,109820.09
2022-09-09T04:57:17.948Z,109847.00
2022-09-09T04:59:47.481Z,109834.78
2022-09-09T05:02:16.599Z,109834.84
2022-09-09T05:04:44.846Z,109841.25
2022-09-09T05:07:14.594Z,109848.69
2022-09-09T05:09:43.687Z,109850.56
2022-09-09T05:12:12.142Z,109838.81
2022-09-09T05:14:45.694Z,109790.03
2022-09-09T05:17:14.350Z,109772.94
2022-09-09T05:19:42.812Z,109760.31
2022-09-09T05:22:12.103Z,109758.44
2022-09-09T05:24:49.210Z,109772.13
2022-09-09T05:27:17.402Z,109760.50
2022-09-09T05:29:45.820Z,109734.63
2022-09-09T05:32:16.210Z,109727.22
2022-09-09T05:34:47.922Z,109764.91
2022-09-09T05:37:17.891Z,109805.25
2022-09-09T05:39:46.664Z,109811.19
2022-09-09T05:42:16.411Z,109819.34
2022-09-09T05:44:45.948Z,109882.81
2022-09-09T05:47:14.265Z,109853.09
2022-09-09T05:49:43.706Z,109867.97
2022-09-09T05:52:12.227Z,109874.47
2022-09-09T05:54:42.645Z,109861.00
2022-09-09T05:57:11.027Z,109846.63
2022-09-09T05:59:41.285Z,109868.63
2022-09-09T06:02:10.778Z,109895.34
2022-09-09T06:04:39.733Z,109880.59
2022-09-09T06:07:08.007Z,109885.19
2022-09-09T06:09:36.923Z,109837.69
2022-09-09T06:12:05.232Z,109875.28
2022-09-09T06:14:36.381Z,109899.34
2022-09-09T06:17:06.319Z,109934.97
2022-09-09T06:19:35.331Z,109964.25
2022-09-09T06:22:04.025Z,109990.78
2022-09-09T06:24:35.413Z,109985.97
2022-09-09T06:27:06.444Z,110050.53
2022-09-09T06:29:37.058Z,110066.91
2022-09-09T06:32:09.584Z,110031.88
2022-09-09T06:34:38.216Z,110062.28
2022-09-09T06:37:07.357Z,110068.75
2022-09-09T06:39:43.337Z,110115.75
2022-09-09T06:42:13.261Z,110105.50
2022-09-09T06:45:01.200Z,110139.66
2022-09-09T06:47:42.154Z,110159.72
2022-09-09T06:50:11.393Z,110150.41
2022-09-09T06:52:40.951Z,110172.63
2022-09-09T06:55:11.098Z,110165.19
2022-09-09T06:57:39.938Z,110191.00
2022-09-09T07:00:15.156Z,110231.78
2022-09-09T07:02:46.245Z,110217.75
2022-09-09T07:05:16.513Z,110146.78
2022-09-09T07:07:46.958Z,109983.69
2022-09-09T07:10:17.711Z,109779.44
2022-09-09T07:12:47.026Z,109495.66
2022-09-09T07:15:16.795Z,109209.25
2022-09-09T07:17:49.527Z,108888.84
2022-09-09T07:20:21.238Z,108509.69
2022-09-09T07:22:59.476Z,108190.97
2022-09-09T07:25:29.994Z,107879.75
2022-09-09T07:27:59.247Z,107628.75
2022-09-09T07:30:28.032Z,107381.47
2022-09-09T07:33:00.350Z,107050.31
2022-09-09T07:35:28.987Z,106711.72
2022-09-09T07:37:57.490Z,106445.22
2022-09-09T07:40:25.915Z,106227.81
2022-09-09T07:42:55.503Z,106002.16
2022-09-09T07:45:23.981Z,105332.59
2022-09-09T07:47:53.747Z,104762.97
2022-09-09T07:50:24.637Z,104180.19
2022-09-09T07:52:53.425Z,103385.47
2022-09-09T07:55:23.275Z,103024.59
2022-09-09T07:57:51.412Z,102725.91
2022-09-09T08:00:23.268Z,102170.56
2022-09-09T08:02:56.166Z,101802.56
2022-09-09T08:05:26.192Z,101654.94
2022-09-09T08:07:54.796Z,101646.97
2022-09-09T08:10:23.447Z,101616.78
2022-09-09T08:13:14.783Z,101603.84
2022-09-09T08:15:42.565Z,101565.22
2022-09-09T08:18:10.892Z,101491.47
2022-09-09T08:20:41.533Z,101390.03
2022-09-09T08:23:10.532Z,101356.94
2022-09-09T08:25:38.771Z,101366.69
2022-09-09T08:28:06.936Z,101295.38
2022-09-09T08:30:35.974Z,101240.34
2022-09-09T08:33:04.210Z,101228.81
2022-09-09T08:35:33.651Z,101214.72
2022-09-09T08:38:07.635Z,101182.16
2022-09-09T08:40:47.360Z,101157.22
2022-09-09T08:43:18.556Z,101137.81
2022-09-09T08:45:58.663Z,101131.97
2022-09-09T08:48:46.358Z,101119.88
2022-09-09T08:51:15.957Z,101107.88
2022-09-09T08:53:59.092Z,101097.91
2022-09-09T08:56:33.578Z,101111.59
2022-09-09T08:59:06.627Z,101092.25
2022-09-09T09:01:51.079Z,101089.22
2022-09-09T09:04:39.366Z,101069.94
2022-09-09T09:07:18.825Z,101055.53
2022-09-09T09:10:00.009Z,101038.25
2022-09-09T09:12:42.560Z,101020.31
2022-09-09T09:15:19.949Z,101027.44
2022-09-09T09:17:49.812Z,101001.44
2022-09-09T09:20:20.915Z,101020.13
2022-09-09T09:22:52.184Z,101025.44
2022-09-09T09:25:25.223Z,101016.19
2022-09-09T09:28:01.739Z,100996.41
2022-09-09T09:30:37.066Z,100964.03
2022-09-09T09:33:19.162Z,100938.84
2022-09-09T09:35:54.611Z,100921.88
2022-09-09T09:41:16.012Z,100900.59
2022-09-09T09:43:44.631Z,100876.59
2022-09-09T09:46:24.924Z,100843.06
2022-09-09T10:02:54.979Z,100616.88
2022-09-09T10:18:47.518Z,100553.59
2022-09-09T10:26:10.927Z,100563.03
2022-09-09T10:29:23.422Z,100568.28
2022-09-09T10:32:40.670Z,100564.03
2022-09-09T10:35:28.739Z,100560.75
2022-09-09T10:38:54.744Z,100548.56
2022-09-09T10:46:26.889Z,100526.59
2022-09-09T10:49:22.791Z,100520.44
2022-09-09T10:52:06.412Z,100516.44
2022-09-09T10:54:50.036Z,100509.50
2022-09-09T10:57:29.448Z,100504.09
2022-09-09T11:00:10.321Z,100492.34
2022-09-09T11:02:56.843Z,100497.56
2022-09-09T11:05:31.015Z,100490.50
2022-09-09T11:16:37.713Z,100485.38
2022-09-09T11:19:31.455Z,100492.41
2022-09-09T11:34:32.874Z,100468.44
2022-09-09T11:38:20.258Z,100445.25
2022-09-09T11:41:35.602Z,100446.53
2022-09-09T11:44:42.928Z,100460.53
2022-09-09T11:47:30.546Z,100461.03
2022-09-09T11:50:14.688Z,100461.88
2022-09-09T11:52:47.416Z,100466.53
2022-09-09T11:55:28.479Z,100479.84
2022-09-09T11:58:00.574Z,100481.59
2022-09-09T12:00:39.163Z,100474.88
2022-09-09T12:03:10.229Z,100465.31
2022-09-09T12:05:46.923Z,100460.97
2022-09-09T12:08:27.536Z,100455.78
2022-09-09T12:10:58.133Z,100451.72
2022-09-09T12:13:28.826Z,100469.34
2022-09-09T12:15:59.070Z,100464.56
2022-09-09T12:18:35.130Z,100466.34
2022-09-09T12:21:09.989Z,100462.66
2022-09-09T12:23:45.652Z,100462.88
2022-09-09T12:26:29.936Z,100454.88
2022-09-09T12:29:10.575Z,100456.19
2022-09-09T12:31:46.269Z,100450.59
2022-09-09T12:34:19.618Z,100447.06
2022-09-09T12:36:54.146Z,100484.34
2022-09-09T12:39:32.507Z,100480.75
2022-09-09T12:42:00.902Z,100474.75
2022-09-09T12:44:33.510Z,100465.69
2022-09-09T12:47:05.843Z,100415.50
2022-09-09T12:50:05.951Z,100385.13
2022-09-09T12:52:38.508Z,100373.66
2022-09-09T12:55:09.771Z,100389.50
2022-09-09T12:57:41.269Z,100458.03
2022-09-09T13:00:18.791Z,100553.03
2022-09-09T13:03:05.971Z,100634.38
2022-09-09T13:05:38.036Z,100719.13
2022-09-09T13:08:08.538Z,100817.59
2022-09-09T13:11:01.910Z,100881.56
2022-09-09T13:13:33.959Z,101050.31
2022-09-09T13:16:04.332Z,101322.19
2022-09-09T13:18:36.020Z,101653.38
2022-09-09T13:21:05.144Z,101963.41
2022-09-09T13:23:36.279Z,102356.28
2022-09-09T13:26:08.745Z,102756.28
2022-09-09T13:28:39.439Z,103128.56
2022-09-09T13:31:21.540Z,103410.94
2022-09-09T13:33:49.782Z,103683.66
2022-09-09T13:36:18.456Z,103932.13
2022-09-09T13:38:57.031Z,104173.03
2022-09-09T13:41:31.532Z,104315.91
2022-09-09T13:44:00.724Z,104493.41
2022-09-09T13:46:36.007Z,104686.16
2022-09-09T13:49:24.289Z,104849.78
2022-09-09T13:51:55.069Z,104993.66
2022-09-09T13:54:26.311Z,105098.78
2022-09-09T13:56:56.367Z,105229.34
2022-09-09T13:59:30.648Z,105327.97
2022-09-09T14:02:06.705Z,105523.75
2022-09-09T14:04:36.201Z,105653.09
2022-09-09T14:07:05.486Z,105766.09
2022-09-09T14:09:35.714Z,105870.88
2022-09-09T14:12:06.154Z,105860.81
2022-09-09T14:14:34.517Z,105653.81
2022-09-09T14:17:06.235Z,105262.00
2022-09-09T14:19:36.429Z,104661.56
2022-09-09T14:22:04.745Z,104006.00
2022-09-09T14:24:33.044Z,103566.41
2022-09-09T14:27:01.220Z,103516.19
2022-09-09T14:29:30.904Z,103231.56
2022-09-09T14:32:02.110Z,102586.53
2022-09-09T14:34:30.558Z,102056.00
2022-09-09T14:36:58.777Z,101879.03
2022-09-09T14:39:30.548Z,101980.06
2022-09-09T14:41:59.270Z,101760.75
2022-09-09T14:44:27.388Z,101724.56
2022-09-09T14:46:57.061Z,101771.38
2022-09-09T14:49:25.225Z,101857.72
2022-09-09T14:51:53.406Z,101903.22
2022-09-09T14:54:22.690Z,102066.66
2022-09-09T14:56:51.279Z,102196.53
2022-09-09T14:59:19.458Z,102368.41
2022-09-09T15:01:47.773Z,102606.41
2022-09-09T15:04:17.779Z,102911.34
2022-09-09T15:06:49.168Z,103215.13
2022-09-09T15:09:17.611Z,103487.91
2022-09-09T15:11:46.129Z,103780.94
2022-09-09T15:14:14.275Z,104033.38
2022-09-09T15:16:42.805Z,104239.78
2022-09-09T15:19:11.359Z,104425.38
2022-09-09T15:21:41.028Z,104630.44
2022-09-09T15:24:09.592Z,104801.28
2022-09-09T15:26:39.473Z,104990.19
2022-09-09T15:29:08.505Z,105200.88
2022-09-09T15:31:36.559Z,105397.13
2022-09-09T15:34:06.651Z,105583.34
2022-09-09T15:36:36.586Z,105742.41
2022-09-09T15:39:08.420Z,105927.81
2022-09-09T15:41:36.849Z,106076.91
2022-09-09T15:44:05.110Z,106209.66
2022-09-09T15:46:38.579Z,106346.94
2022-09-09T15:49:10.158Z,106488.84
2022-09-09T15:51:44.195Z,106496.00
2022-09-09T15:54:18.082Z,106590.72
2022-09-09T15:56:47.542Z,106585.13
2022-09-09T15:59:15.844Z,106662.53
2022-09-09T16:01:45.291Z,106723.56
2022-09-09T16:04:13.663Z,106775.41
2022-09-09T16:06:41.787Z,106857.34
2022-09-09T16:09:11.218Z,106933.75
2022-09-09T16:11:41.502Z,106990.13
2022-09-09T16:14:09.986Z,107033.69
2022-09-09T16:16:38.327Z,107084.69
2022-09-09T16:19:10.533Z,107139.28
2022-09-09T16:21:40.797Z,107175.69
2022-09-09T16:24:10.870Z,107256.78
2022-09-09T16:26:42.893Z,107300.53
2022-09-09T16:29:11.037Z,107323.22
2022-09-09T16:31:41.115Z,107333.09
2022-09-09T16:34:09.390Z,107368.78
2022-09-09T16:36:39.942Z,107435.34
2022-09-09T16:39:11.118Z,107473.50
2022-09-09T16:41:42.283Z,107563.88
2022-09-09T16:44:14.463Z,107623.88
2022-09-09T16:46:44.998Z,107740.63
2022-09-09T16:49:15.731Z,107811.72
2022-09-09T16:51:45.777Z,107868.97
2022-09-09T16:54:14.833Z,107887.66
2022-09-09T16:56:47.385Z,107932.06
2022-09-09T16:59:17.591Z,108009.47
2022-09-09T17:01:47.827Z,108098.88
2022-09-09T17:04:21.548Z,108179.03
2022-09-09T17:06:50.575Z,108207.00
2022-09-09T17:09:19.883Z,108254.06
2022-09-09T17:11:51.801Z,108333.34
2022-09-09T17:14:21.326Z,108401.47
2022-09-09T17:16:50.224Z,108466.66
2022-09-09T17:19:19.004Z,108555.00
2022-09-09T17:24:39.488Z,108761.09
2022-09-09T17:27:09.982Z,108815.44
2022-09-09T17:29:38.566Z,108885.56
2022-09-09T17:32:08.281Z,108958.41
2022-09-09T17:34:37.282Z,108979.09
2022-09-09T17:37:07.056Z,109091.31
2022-09-09T17:39:36.648Z,109125.50
2022-09-09T17:42:05.380Z,109205.28
2022-09-09T17:44:35.409Z,109204.00
2022-09-09T17:47:05.107Z,109211.53
2022-09-09T17:49:33.630Z,109198.31
2022-09-09T17:52:01.893Z,109265.00
2022-09-09T17:54:30.323Z,109285.84
2022-09-09T17:57:00.840Z,109304.66
2022-09-09T17:59:30.449Z,109347.63
2022-09-09T18:02:00.260Z,109353.34
2022-09-09T18:04:43.051Z,109392.56
2022-09-09T18:07:13.945Z,109405.91
2022-09-09T18:09:45.726Z,109467.22
2022-09-09T18:12:21.700Z,109518.03
2022-09-09T18:15:03.773Z,109517.31
2022-09-09T18:20:04.923Z,109691.06
2022-09-09T18:22:34.259Z,109727.16
2022-09-09T18:25:02.584Z,109774.00
2022-09-09T18:27:31.597Z,109779.69
2022-09-09T18:30:03.472Z,109823.13
2022-09-09T18:32:35.921Z,109902.53
2022-09-09T18:35:04.607Z,109954.41
2022-09-09T18:37:34.937Z,110036.81
2022-09-09T18:40:03.694Z,110007.72
2022-09-09T18:42:36.335Z,110092.44
2022-09-09T18:45:05.507Z,110106.47
2022-09-09T18:47:35.440Z,110130.22
2022-09-09T18:50:03.805Z,110151.41
2022-09-09T18:52:36.863Z,110172.41
2022-09-09T18:55:09.409Z,110148.56
2022-09-09T18:57:38.522Z,110163.84
2022-09-09T19:00:09.825Z,110121.81
2022-09-09T19:02:41.882Z,110028.22
2022-09-09T19:05:10.965Z,110022.38
2022-09-09T19:07:41.529Z,110005.41
2022-09-09T19:10:12.946Z,109986.19
2022-09-09T19:12:44.976Z,109967.81
2022-09-09T19:15:15.876Z,109965.84
2022-09-09T19:17:45.583Z,109969.44
2022-09-09T19:20:13.673Z,109995.06
2022-09-09T19:22:43.857Z,109982.06
2022-09-09T19:25:12.240Z,109971.16
2022-09-09T19:27:40.380Z,109922.75
2022-09-09T19:30:14.892Z,109867.22
2022-09-09T19:32:53.365Z,109690.19
2022-09-09T19:35:23.895Z,109569.84
2022-09-09T19:37:52.006Z,109461.63
2022-09-09T19:40:25.374Z,109377.97
2022-09-09T19:42:54.050Z,109387.44
2022-09-09T19:45:22.720Z,109415.53
2022-09-09T19:47:54.295Z,109429.66
2022-09-09T19:50:24.075Z,109462.41
2022-09-09T19:52:52.921Z,109524.50
2022-09-09T19:55:23.089Z,109554.97
2022-09-09T19:57:55.674Z,109595.66
2022-09-09T20:00:23.941Z,109676.13
2022-09-09T20:03:17.769Z,109735.16
2022-09-09T20:05:59.440Z,109812.81
2022-09-09T20:08:28.807Z,109822.25
2022-09-09T20:10:57.222Z,109871.41
2022-09-09T20:13:35.718Z,109901.34
2022-09-09T20:16:13.240Z,109933.34
2022-09-09T20:18:45.969Z,109977.69
2022-09-09T20:21:18.067Z,109998.66
2022-09-09T20:23:48.861Z,110079.09
2022-09-09T20:26:21.435Z,110096.94
2022-09-09T20:28:53.854Z,110091.41
2022-09-09T20:31:24.020Z,110102.25
2022-09-09T20:34:59.652Z,110103.53
2022-09-09T20:37:35.228Z,110085.09
2022-09-09T20:40:04.027Z,110080.88
2022-09-09T20:42:32.378Z,110016.75
2022-09-09T20:45:02.451Z,109965.19
2022-09-09T20:47:31.063Z,110011.66
2022-09-09T20:50:00.575Z,110019.03
2022-09-09T20:52:28.598Z,109991.34
2022-09-09T20:54:58.104Z,109961.94
2022-09-09T20:57:26.356Z,109870.78
2022-09-09T20:59:54.479Z,109874.09
2022-09-09T21:02:22.925Z,109895.25
2022-09-09T21:04:51.186Z,109826.84
2022-09-09T21:07:19.492Z,109817.25
2022-09-09T21:09:47.696Z,109777.34
2022-09-09T21:12:17.963Z,109760.28
2022-09-09T21:14:46.051Z,109684.22
2022-09-09T21:17:13.985Z,109657.19
2022-09-09T21:19:42.770Z,109587.34
2022-09-09T21:22:11.570Z,109619.06
2022-09-09T21:24:39.686Z,109551.34
2022-09-09T21:27:08.127Z,109533.81
2022-09-09T21:29:37.870Z,109554.31
2022-09-09T21:32:06.125Z,109538.06
2022-09-09T21:34:35.815Z,109557.16
2022-09-09T21:37:04.239Z,109512.13
2022-09-09T21:39:32.398Z,109477.09
2022-09-09T21:42:01.808Z,109530.13
2022-09-09T21:44:30.081Z,109531.66
2022-09-09T21:46:59.521Z,109591.94
2022-09-09T21:49:28.506Z,109668.03
2022-09-09T21:51:58.514Z,109682.44
2022-09-09T21:54:26.994Z,109703.72
2022-09-09T21:56:55.086Z,109670.50
2022-09-09T21:59:23.102Z,109677.03
2022-09-09T22:01:51.163Z,109658.63
2022-09-09T22:04:20.554Z,109691.72
2022-09-09T22:06:48.791Z,109668.31
2022-09-09T22:09:16.887Z,109732.72
2022-09-09T22:11:44.803Z,109772.06
2022-09-09T22:14:13.901Z,109767.53
2022-09-09T22:16:44.800Z,109789.28
2022-09-09T22:19:13.362Z,109758.91
2022-09-09T22:21:42.735Z,109666.22
2022-09-09T22:24:13.026Z,109654.13
2022-09-09T22:26:42.171Z,109667.84
2022-09-09T22:29:11.015Z,109627.25
2022-09-09T22:31:39.157Z,109579.84
2022-09-09T22:34:07.872Z,109563.47
2022-09-09T22:36:36.716Z,109592.34
2022-09-09T22:39:06.653Z,109559.41
2022-09-09T22:41:35.768Z,109573.69
2022-09-09T22:44:05.441Z,109575.34
2022-09-09T22:46:34.073Z,109547.84
2022-09-09T22:49:03.659Z,109575.34
2022-09-09T22:51:34.292Z,109607.47
2022-09-09T22:54:02.366Z,109581.88
2022-09-09T22:56:31.951Z,109567.97
2022-09-09T22:58:59.926Z,109600.44
2022-09-09T23:01:29.239Z,109627.50
2022-09-09T23:03:59.434Z,109622.81
2022-09-09T23:06:28.891Z,109617.19
2022-09-09T23:08:59.698Z,109583.53
2022-09-09T23:11:31.640Z,109530.63
2022-09-09T23:14:02.941Z,109526.75
2022-09-09T23:16:33.863Z,109487.50
2022-09-09T23:19:02.018Z,109517.75
2022-09-09T23:21:31.278Z,109521.31
2022-09-09T23:24:00.665Z,109514.00
2022-09-09T23:26:29.813Z,109530.28
2022-09-09T23:28:59.362Z,109556.66
2022-09-09T23:31:32.959Z,109552.09
2022-09-09T23:34:02.111Z,109593.59
2022-09-09T23:36:31.279Z,109565.13
2022-09-09T23:39:01.709Z,109553.63
2022-09-09T23:41:29.982Z,109575.63
2022-09-09T23:43:58.252Z,109564.63
2022-09-09T23:46:29.031Z,109587.72
2022-09-09T23:48:57.875Z,109520.47
2022-09-09T23:51:28.834Z,109433.19
2022-09-09T23:53:58.854Z,109281.19
2022-09-09T23:56:30.589Z,109089.75
2022-09-09T23:58:58.591Z,108802.78
